createdAt,value
2019-04-10T00:01:11.065Z,39.60
2019-04-10T00:03:40.750Z,40.00
2019-04-10T00:06:06.698Z,39.50
2019-04-10T00:08:33.003Z,40.00
2019-04-10T00:10:59.028Z,40.00
2019-04-10T00:13:25.452Z,40.10
2019-04-10T00:15:52.601Z,40.30
2019-04-10T00:18:22.128Z,40.30
2019-04-10T00:20:49.109Z,40.10
2019-04-10T00:23:15.287Z,40.30
2019-04-10T00:25:43.436Z,40.00
2019-04-10T00:28:09.599Z,39.90
2019-04-10T00:30:36.296Z,39.70
2019-04-10T00:33:04.712Z,40.20
2019-04-10T00:35:31.693Z,39.80
2019-04-10T00:37:57.958Z,39.90
2019-04-10T00:40:23.968Z,39.90
2019-04-10T00:42:49.991Z,40.00
2019-04-10T00:45:16.239Z,40.70
2019-04-10T00:47:43.455Z,39.90
2019-04-10T00:50:10.429Z,39.70
2019-04-10T00:52:36.935Z,40.00
2019-04-10T00:55:03.633Z,40.00
2019-04-10T00:57:29.690Z,39.80
2019-04-10T00:59:56.730Z,39.70
2019-04-10T01:02:22.931Z,39.80
2019-04-10T01:04:48.963Z,39.80
2019-04-10T01:07:15.083Z,39.90
2019-04-10T01:09:41.579Z,40.00
2019-04-10T01:12:16.074Z,39.90
2019-04-10T01:14:49.793Z,39.90
2019-04-10T01:17:22.306Z,40.10
2019-04-10T01:19:48.420Z,40.20
2019-04-10T01:22:14.922Z,40.00
2019-04-10T01:24:41.742Z,40.30
2019-04-10T01:27:07.831Z,40.40
2019-04-10T01:29:36.245Z,40.70
2019-04-10T01:32:03.593Z,40.40
2019-04-10T01:34:29.821Z,40.10
2019-04-10T01:36:56.510Z,40.30
2019-04-10T01:39:24.511Z,40.10
2019-04-10T01:41:50.535Z,40.50
2019-04-10T01:44:20.327Z,40.60
2019-04-10T01:46:46.654Z,40.40
2019-04-10T01:49:13.483Z,40.00
2019-04-10T01:51:39.595Z,40.10
2019-04-10T01:54:05.610Z,40.00
2019-04-10T01:56:34.630Z,40.30
2019-04-10T01:58:59.575Z,40.00
2019-04-10T02:01:30.421Z,40.50
2019-04-10T02:03:58.544Z,40.50
2019-04-10T02:06:25.491Z,40.50
2019-04-10T02:08:51.510Z,40.60
2019-04-10T02:11:25.864Z,40.60
2019-04-10T02:13:52.468Z,40.50
2019-04-10T02:16:18.844Z,40.20
2019-04-10T02:18:45.732Z,40.60
2019-04-10T02:21:14.520Z,40.50
2019-04-10T02:23:40.668Z,40.40
2019-04-10T02:26:07.452Z,40.40
2019-04-10T02:28:36.037Z,40.20
2019-04-10T02:31:02.933Z,40.40
2019-04-10T02:33:29.628Z,40.50
2019-04-10T02:35:57.219Z,40.80
2019-04-10T02:38:40.168Z,41.20
2019-04-10T02:40:51.685Z,41.20
2019-04-10T02:43:19.187Z,41.10
2019-04-10T02:45:45.268Z,41.10
2019-04-10T02:48:12.158Z,41.30
2019-04-10T02:50:38.703Z,41.10
2019-04-10T02:53:05.554Z,41.30
2019-04-10T02:55:33.189Z,41.20
2019-04-10T02:58:00.765Z,41.20
2019-04-10T03:00:28.275Z,41.20
2019-04-10T03:02:55.549Z,41.10
2019-04-10T03:05:23.722Z,41.40
2019-04-10T03:07:52.448Z,41.90
2019-04-10T03:10:26.422Z,42.00
2019-04-10T03:12:48.175Z,42.00
2019-04-10T03:15:15.039Z,41.80
2019-04-10T03:17:42.053Z,42.30
2019-04-10T03:20:08.166Z,42.50
2019-04-10T03:22:34.673Z,42.60
2019-04-10T03:25:00.891Z,42.70
2019-04-10T03:27:28.029Z,42.80
2019-04-10T03:29:54.231Z,42.80
2019-04-10T03:32:40.654Z,42.60
2019-04-10T03:35:13.059Z,42.50
2019-04-10T03:37:39.131Z,42.70
2019-04-10T03:40:05.139Z,42.70
2019-04-10T03:42:31.154Z,42.30
2019-04-10T03:44:58.789Z,45.20
2019-04-10T03:47:25.181Z,44.80
2019-04-10T03:49:51.919Z,43.60
2019-04-10T03:52:19.022Z,43.30
2019-04-10T03:54:46.076Z,43.20
2019-04-10T03:57:12.254Z,43.30
2019-04-10T03:59:40.212Z,44.10
2019-04-10T04:02:07.189Z,43.10
2019-04-10T04:04:33.752Z,43.20
2019-04-10T04:06:59.995Z,43.30
2019-04-10T04:09:27.233Z,43.20
2019-04-10T04:11:53.709Z,43.20
2019-04-10T04:14:20.091Z,43.10
2019-04-10T04:16:47.036Z,43.40
2019-04-10T04:19:13.548Z,43.50
2019-04-10T04:21:39.782Z,43.40
2019-04-10T04:24:07.065Z,43.30
2019-04-10T04:26:33.237Z,43.30
2019-04-10T04:28:59.931Z,43.40
2019-04-10T04:31:27.021Z,43.20
2019-04-10T04:33:53.328Z,43.50
2019-04-10T04:36:20.374Z,43.40
2019-04-10T04:38:46.787Z,43.30
2019-04-10T04:41:13.270Z,43.40
2019-04-10T04:43:42.338Z,43.30
2019-04-10T04:46:07.949Z,43.40
2019-04-10T04:48:34.316Z,43.40
2019-04-10T04:51:01.261Z,43.30
2019-04-10T04:53:27.998Z,43.20
2019-04-10T04:55:54.027Z,43.50
2019-04-10T04:58:20.336Z,43.30
2019-04-10T05:00:46.477Z,43.00
2019-04-10T05:03:12.488Z,43.00
2019-04-10T05:05:39.142Z,43.10
2019-04-10T05:08:06.871Z,43.50
2019-04-10T05:10:33.580Z,43.10
2019-04-10T05:12:59.949Z,42.90
2019-04-10T05:15:26.931Z,43.00
2019-04-10T05:17:53.549Z,43.10
2019-04-10T05:20:19.652Z,42.80
2019-04-10T05:22:45.709Z,42.60
2019-04-10T05:25:11.784Z,42.40
2019-04-10T05:27:37.803Z,42.10
2019-04-10T05:30:06.214Z,42.10
2019-04-10T05:32:32.941Z,42.10
2019-04-10T05:34:59.131Z,41.90
2019-04-10T05:37:25.138Z,41.70
2019-04-10T05:39:52.333Z,41.90
2019-04-10T05:42:20.537Z,42.30
2019-04-10T05:44:47.807Z,41.80
2019-04-10T05:47:14.036Z,42.00
2019-04-10T05:49:40.110Z,42.60
2019-04-10T05:52:06.192Z,42.70
2019-04-10T05:54:33.292Z,41.70
2019-04-10T05:56:59.599Z,41.20
2019-04-10T05:59:25.644Z,41.20
2019-04-10T06:01:52.615Z,41.60
2019-04-10T06:04:19.005Z,40.50
2019-04-10T06:06:45.117Z,40.30
2019-04-10T06:09:12.124Z,40.40
2019-04-10T06:11:39.469Z,40.10
2019-04-10T06:14:06.363Z,40.00
2019-04-10T06:16:32.385Z,40.60
2019-04-10T06:18:59.664Z,39.60
2019-04-10T06:21:25.816Z,39.30
2019-04-10T06:23:51.885Z,39.10
2019-04-10T06:26:17.996Z,38.80
2019-04-10T06:28:44.498Z,38.10
2019-04-10T06:31:10.503Z,37.90
2019-04-10T06:33:36.599Z,37.50
2019-04-10T06:36:02.871Z,37.00
2019-04-10T06:38:29.045Z,36.30
2019-04-10T06:40:55.107Z,36.50
2019-04-10T06:43:22.586Z,36.50
2019-04-10T06:45:50.253Z,36.70
2019-04-10T06:48:17.178Z,36.90
2019-04-10T06:50:44.529Z,36.70
2019-04-10T06:53:15.785Z,35.80
2019-04-10T06:55:42.601Z,35.70
2019-04-10T06:58:09.694Z,35.50
2019-04-10T07:00:36.824Z,35.20
2019-04-10T07:03:03.484Z,34.70
2019-04-10T07:05:37.936Z,34.00
2019-04-10T07:08:09.056Z,33.60
2019-04-10T07:10:33.556Z,33.50
2019-04-10T07:12:56.681Z,32.90
2019-04-10T07:15:23.978Z,32.20
2019-04-10T07:17:55.364Z,32.20
2019-04-10T07:20:22.324Z,32.10
2019-04-10T07:22:49.670Z,32.00
2019-04-10T07:25:15.993Z,31.40
2019-04-10T07:27:45.579Z,31.40
2019-04-10T07:30:12.094Z,31.00
2019-04-10T07:32:42.109Z,30.00
2019-04-10T07:35:11.237Z,30.00
2019-04-10T07:37:37.765Z,29.70
2019-04-10T07:40:07.974Z,29.30
2019-04-10T07:42:38.441Z,29.20
2019-04-10T07:45:03.683Z,28.90
2019-04-10T07:47:31.363Z,29.10
2019-04-10T07:50:02.122Z,29.20
2019-04-10T07:52:29.466Z,29.30
2019-04-10T07:54:56.612Z,28.90
2019-04-10T07:57:23.140Z,28.60
2019-04-10T07:59:49.684Z,28.30
2019-04-10T08:02:16.406Z,28.10
2019-04-10T08:04:43.179Z,29.00
2019-04-10T08:07:09.502Z,29.30
2019-04-10T08:09:35.714Z,28.60
2019-04-10T08:12:02.904Z,28.40
2019-04-10T08:14:31.911Z,28.30
2019-04-10T08:16:58.047Z,28.40
2019-04-10T08:19:25.374Z,28.10
2019-04-10T08:21:52.773Z,27.30
2019-04-10T08:24:18.964Z,27.10
2019-04-10T08:26:45.295Z,26.20
2019-04-10T08:29:12.047Z,26.30
2019-04-10T08:31:39.545Z,26.20
2019-04-10T08:34:06.639Z,25.90
2019-04-10T08:36:33.060Z,26.30
2019-04-10T08:38:59.278Z,26.20
2019-04-10T08:41:25.633Z,26.30
2019-04-10T08:43:52.975Z,26.30
2019-04-10T08:46:19.803Z,26.10
2019-04-10T08:48:46.023Z,25.80
2019-04-10T08:51:12.151Z,25.70
2019-04-10T08:53:38.411Z,25.70
2019-04-10T08:56:04.560Z,25.70
2019-04-10T08:58:31.014Z,24.90
2019-04-10T09:00:57.371Z,24.90
2019-04-10T09:03:24.543Z,24.80
2019-04-10T09:05:51.088Z,25.10
2019-04-10T09:08:17.285Z,25.00
2019-04-10T09:10:43.295Z,24.90
2019-04-10T09:13:10.384Z,25.00
2019-04-10T09:15:36.667Z,24.70
2019-04-10T09:18:03.956Z,24.50
2019-04-10T09:20:30.970Z,23.10
2019-04-10T09:23:15.515Z,21.80
2019-04-10T09:25:25.107Z,20.80
2019-04-10T09:27:51.772Z,20.30
2019-04-10T09:30:18.679Z,20.50
2019-04-10T09:32:44.710Z,20.70
2019-04-10T09:35:10.711Z,20.90
2019-04-10T09:37:37.842Z,20.70
2019-04-10T09:40:06.063Z,20.70
2019-04-10T09:42:33.253Z,20.40
2019-04-10T09:45:00.407Z,20.40
2019-04-10T09:47:26.966Z,21.10
2019-04-10T09:49:53.607Z,21.20
2019-04-10T09:52:19.841Z,20.00
2019-04-10T09:54:46.726Z,20.30
2019-04-10T09:57:12.966Z,19.90
2019-04-10T09:59:41.331Z,19.80
2019-04-10T10:02:07.483Z,19.80
2019-04-10T10:04:33.508Z,19.90
2019-04-10T10:07:00.160Z,19.50
2019-04-10T10:09:29.024Z,19.50
2019-04-10T10:11:54.123Z,19.40
2019-04-10T10:14:20.955Z,19.30
2019-04-10T10:16:47.075Z,18.60
2019-04-10T10:19:14.106Z,18.60
2019-04-10T10:21:42.920Z,18.40
2019-04-10T10:24:09.023Z,18.30
2019-04-10T10:26:35.031Z,18.40
2019-04-10T10:29:04.820Z,17.40
2019-04-10T10:31:32.862Z,16.90
2019-04-10T10:33:58.875Z,16.90
2019-04-10T10:36:35.506Z,16.80
2019-04-10T10:39:03.641Z,17.10
2019-04-10T10:41:20.828Z,16.10
2019-04-10T10:43:46.919Z,15.60
2019-04-10T10:46:13.426Z,15.80
2019-04-10T10:48:46.146Z,15.20
2019-04-10T10:51:14.883Z,15.40
2019-04-10T10:53:41.067Z,15.10
2019-04-10T10:56:07.132Z,14.20
2019-04-10T10:58:33.965Z,13.60
2019-04-10T11:01:00.234Z,13.40
2019-04-10T11:03:26.491Z,13.10
2019-04-10T11:05:52.886Z,13.50
2019-04-10T11:08:19.143Z,13.30
2019-04-10T11:10:50.731Z,11.80
2019-04-10T11:13:15.040Z,11.50
2019-04-10T11:15:45.384Z,10.20
2019-04-10T11:18:10.267Z,10.30
2019-04-10T11:20:41.786Z,9.00
2019-04-10T11:23:06.919Z,8.30
2019-04-10T11:25:32.951Z,7.10
2019-04-10T11:28:00.206Z,5.30
2019-04-10T11:30:26.923Z,5.90
2019-04-10T11:32:54.794Z,4.80
2019-04-10T11:35:21.819Z,4.40
2019-04-10T11:37:51.349Z,4.20
2019-04-10T11:40:17.919Z,3.70
2019-04-10T11:42:44.723Z,3.40
2019-04-10T11:45:10.924Z,3.60
2019-04-10T11:47:38.610Z,4.50
2019-04-10T11:50:10.324Z,4.90
2019-04-10T11:52:40.269Z,4.90
2019-04-10T11:55:09.946Z,5.50
2019-04-10T11:57:32.599Z,5.90
2019-04-10T12:00:02.330Z,6.30
2019-04-10T12:02:30.447Z,6.60
2019-04-10T12:05:01.610Z,6.60
2019-04-10T12:07:57.425Z,6.60
2019-04-10T12:12:22.052Z,7.00
2019-04-10T12:14:48.094Z,6.20
2019-04-10T12:17:20.145Z,6.30
2019-04-10T12:19:46.717Z,5.90
2019-04-10T12:22:16.247Z,5.50
2019-04-10T12:24:42.628Z,5.00
2019-04-10T12:27:09.183Z,4.70
2019-04-10T12:29:35.412Z,4.60
2019-04-10T12:32:01.429Z,5.90
2019-04-10T12:34:28.540Z,5.80
2019-04-10T12:36:55.199Z,4.80
2019-04-10T12:39:22.671Z,5.10
2019-04-10T12:41:49.962Z,5.80
2019-04-10T12:44:16.118Z,6.80
2019-04-10T12:46:42.109Z,6.60
2019-04-10T12:49:09.474Z,6.10
2019-04-10T12:51:36.295Z,5.90
2019-04-10T12:54:02.633Z,5.10
2019-04-10T12:56:28.700Z,4.90
2019-04-10T12:58:55.161Z,5.00
2019-04-10T13:01:21.348Z,4.30
2019-04-10T13:03:49.208Z,4.40
2019-04-10T13:06:15.874Z,5.50
2019-04-10T13:08:56.993Z,6.90
2019-04-10T13:11:10.208Z,7.90
2019-04-10T13:13:36.216Z,8.30
2019-04-10T13:16:03.543Z,8.40
2019-04-10T13:18:30.184Z,9.00
2019-04-10T13:20:56.344Z,8.90
2019-04-10T13:23:25.650Z,9.20
2019-04-10T13:25:59.787Z,9.20
2019-04-10T13:28:20.222Z,9.80
2019-04-10T13:30:52.931Z,9.70
2019-04-10T13:33:14.710Z,10.00
2019-04-10T13:35:40.724Z,9.50
2019-04-10T13:38:06.810Z,8.70
2019-04-10T13:40:32.928Z,9.20
2019-04-10T13:42:58.945Z,8.90
2019-04-10T13:45:24.953Z,7.50
2019-04-10T13:47:51.229Z,6.40
2019-04-10T13:50:17.271Z,6.40
2019-04-10T13:52:45.321Z,5.80
2019-04-10T13:55:11.731Z,6.10
2019-04-10T13:57:39.038Z,5.50
2019-04-10T14:00:05.782Z,4.50
2019-04-10T14:02:34.042Z,3.80
2019-04-10T14:05:00.784Z,3.50
2019-04-10T14:07:26.787Z,3.10
2019-04-10T14:09:54.356Z,2.50
2019-04-10T14:12:20.692Z,3.30
2019-04-10T14:14:46.821Z,4.60
2019-04-10T14:17:13.138Z,5.20
2019-04-10T14:19:41.530Z,5.40
2019-04-10T14:22:07.643Z,6.10
2019-04-10T14:24:41.242Z,6.90
2019-04-10T14:27:03.607Z,8.30
2019-04-10T14:29:30.177Z,7.90
2019-04-10T14:32:01.191Z,7.70
2019-04-10T14:34:28.271Z,8.60
2019-04-10T14:36:54.825Z,7.90
2019-04-10T14:39:21.776Z,7.10
2019-04-10T14:41:49.772Z,7.20
2019-04-10T14:44:16.235Z,6.50
2019-04-10T14:46:42.268Z,5.50
2019-04-10T14:49:08.990Z,3.90
2019-04-10T14:51:35.154Z,4.10
2019-04-10T14:54:01.724Z,4.10
2019-04-10T14:56:28.368Z,4.30
2019-04-10T14:58:54.953Z,4.40
2019-04-10T15:01:21.971Z,5.10
2019-04-10T15:03:48.727Z,6.00
2019-04-10T15:06:15.468Z,6.30
2019-04-10T15:08:41.964Z,6.60
2019-04-10T15:11:11.010Z,6.70
2019-04-10T15:13:37.982Z,6.70
2019-04-10T15:16:05.009Z,5.90
2019-04-10T15:18:31.210Z,5.20
2019-04-10T15:21:00.708Z,4.10
2019-04-10T15:23:27.499Z,4.40
2019-04-10T15:25:53.664Z,4.40
2019-04-10T15:28:19.688Z,4.60
2019-04-10T15:30:46.596Z,3.30
2019-04-10T15:33:14.122Z,2.90
2019-04-10T15:35:40.377Z,2.50
2019-04-10T15:38:06.858Z,2.60
2019-04-10T15:40:32.870Z,2.80
2019-04-10T15:42:58.896Z,2.50
2019-04-10T15:45:25.943Z,2.70
2019-04-10T15:47:54.602Z,2.50
2019-04-10T15:50:20.278Z,2.50
2019-04-10T15:52:47.296Z,2.60
2019-04-10T15:55:13.454Z,2.40
2019-04-10T15:57:49.119Z,2.50
2019-04-10T16:00:08.657Z,2.70
2019-04-10T16:02:46.900Z,2.40
2019-04-10T16:05:09.557Z,2.10
2019-04-10T16:07:39.038Z,2.10
2019-04-10T16:10:26.863Z,2.30
2019-04-10T16:12:55.500Z,3.00
2019-04-10T16:15:21.727Z,3.60
2019-04-10T16:18:09.317Z,4.20
2019-04-10T16:20:35.287Z,4.70
2019-04-10T16:23:24.010Z,5.20
2019-04-10T16:25:52.412Z,6.80
2019-04-10T16:28:18.746Z,5.60
2019-04-10T16:30:52.910Z,6.40
2019-04-10T16:33:30.148Z,5.90
2019-04-10T16:35:56.991Z,6.40
2019-04-10T16:38:26.923Z,7.00
2019-04-10T16:41:01.068Z,6.80
2019-04-10T16:43:36.291Z,6.00
2019-04-10T16:46:02.869Z,6.40
2019-04-10T16:48:31.482Z,7.30
2019-04-10T16:50:57.686Z,8.20
2019-04-10T16:53:23.707Z,9.10
2019-04-10T16:55:49.719Z,9.50
2019-04-10T16:58:16.105Z,10.00
2019-04-10T17:00:42.152Z,10.30
2019-04-10T17:03:09.239Z,10.70
2019-04-10T17:05:39.811Z,11.20
2019-04-10T17:08:21.977Z,11.30
2019-04-10T17:10:50.557Z,12.00
2019-04-10T17:13:36.811Z,12.20
2019-04-10T17:16:19.793Z,12.30
2019-04-10T17:18:45.534Z,13.10
2019-04-10T17:21:13.012Z,12.80
2019-04-10T17:23:40.610Z,13.10
2019-04-10T17:26:10.753Z,13.40
2019-04-10T17:28:38.542Z,13.20
2019-04-10T17:31:05.032Z,14.70
2019-04-10T17:33:34.208Z,15.30
2019-04-10T17:36:00.264Z,15.30
2019-04-10T17:38:26.749Z,15.50
2019-04-10T17:40:55.594Z,15.70
2019-04-10T17:43:23.084Z,16.10
2019-04-10T17:45:48.993Z,15.80
2019-04-10T17:48:15.740Z,15.90
2019-04-10T17:50:43.548Z,16.30
2019-04-10T17:53:17.190Z,16.50
2019-04-10T17:55:47.444Z,16.90
2019-04-10T17:58:13.690Z,17.30
2019-04-10T18:00:43.043Z,17.70
2019-04-10T18:03:13.243Z,17.80
2019-04-10T18:05:39.619Z,18.10
2019-04-10T18:08:05.648Z,18.20
2019-04-10T18:10:43.807Z,18.50
2019-04-10T18:13:00.873Z,19.00
2019-04-10T18:15:28.718Z,19.80
2019-04-10T18:17:55.932Z,20.40
2019-04-10T18:20:22.097Z,20.50
2019-04-10T18:22:48.962Z,21.10
2019-04-10T18:25:15.897Z,21.70
2019-04-10T18:27:42.846Z,22.10
2019-04-10T18:30:09.973Z,22.40
2019-04-10T18:32:38.121Z,22.60
2019-04-10T18:35:05.159Z,23.00
2019-04-10T18:37:33.432Z,23.70
2019-04-10T18:40:00.805Z,23.60
2019-04-10T18:42:33.705Z,24.00
2019-04-10T18:45:19.658Z,24.20
2019-04-10T18:47:46.094Z,24.60
2019-04-10T18:50:12.264Z,24.50
2019-04-10T18:52:39.308Z,25.00
2019-04-10T18:55:05.956Z,25.10
2019-04-10T18:57:35.224Z,25.60
2019-04-10T19:00:24.048Z,25.80
2019-04-10T19:02:52.918Z,26.20
2019-04-10T19:05:24.045Z,26.60
2019-04-10T19:07:50.871Z,26.70
2019-04-10T19:10:23.225Z,26.80
2019-04-10T19:12:50.717Z,27.30
2019-04-10T19:15:17.013Z,27.10
2019-04-10T19:17:43.513Z,27.30
2019-04-10T19:20:11.083Z,27.70
2019-04-10T19:22:37.538Z,27.60
2019-04-10T19:25:04.066Z,27.80
2019-04-10T19:27:30.088Z,28.00
2019-04-10T19:29:59.803Z,29.70
2019-04-10T19:32:33.526Z,28.70
2019-04-10T19:34:59.649Z,28.70
2019-04-10T19:37:25.696Z,28.70
2019-04-10T19:39:51.980Z,28.40
2019-04-10T19:42:29.369Z,28.70
2019-04-10T19:45:01.726Z,28.50
2019-04-10T19:47:28.433Z,28.80
2019-04-10T19:49:55.123Z,28.90
2019-04-10T19:52:22.457Z,29.00
2019-04-10T19:54:53.488Z,29.20
2019-04-10T19:57:19.929Z,29.50
2019-04-10T19:59:50.237Z,29.70
2019-04-10T20:02:17.034Z,29.60
2019-04-10T20:04:43.090Z,30.00
2019-04-10T20:07:11.023Z,30.30
2019-04-10T20:09:44.366Z,30.70
2019-04-10T20:12:18.215Z,31.20
2019-04-10T20:14:49.055Z,31.80
2019-04-10T20:17:15.641Z,32.30
2019-04-10T20:19:42.560Z,32.30
2019-04-10T20:22:08.723Z,32.40
2019-04-10T20:24:34.751Z,32.40
2019-04-10T20:27:01.520Z,33.10
2019-04-10T20:29:30.930Z,33.40
2019-04-10T20:31:58.071Z,33.40
2019-04-10T20:34:24.420Z,33.40
2019-04-10T20:36:50.525Z,33.40
2019-04-10T20:39:17.018Z,33.40
2019-04-10T20:41:49.829Z,33.80
2019-04-10T20:44:11.296Z,34.20
2019-04-10T20:46:38.220Z,34.10
2019-04-10T20:49:07.987Z,34.00
2019-04-10T20:51:33.208Z,34.60
2019-04-10T20:54:02.336Z,34.40
2019-04-10T20:56:28.496Z,34.70
2019-04-10T20:58:59.328Z,34.60
2019-04-10T21:01:27.245Z,34.60
2019-04-10T21:03:53.485Z,34.90
2019-04-10T21:06:19.495Z,34.40
2019-04-10T21:08:46.484Z,34.50
2019-04-10T21:11:13.905Z,34.80
2019-04-10T21:13:40.760Z,34.80
2019-04-10T21:16:07.560Z,35.10
2019-04-10T21:18:34.043Z,34.90
2019-04-10T21:21:00.059Z,35.00
2019-04-10T21:23:27.148Z,35.00
2019-04-10T21:25:53.439Z,34.90
2019-04-10T21:28:20.373Z,34.70
2019-04-10T21:30:48.793Z,34.60
2019-04-10T21:33:16.896Z,34.60
2019-04-10T21:35:45.563Z,34.70
2019-04-10T21:38:11.168Z,34.70
2019-04-10T21:40:39.116Z,34.60
2019-04-10T21:43:06.049Z,34.60
2019-04-10T21:45:32.777Z,34.60
2019-04-10T21:47:59.972Z,34.50
2019-04-10T21:50:26.975Z,34.30
2019-04-10T21:53:04.022Z,34.70
2019-04-10T21:58:30.429Z,34.70
2019-04-10T22:01:01.422Z,34.60
2019-04-10T22:03:27.653Z,34.80
2019-04-10T22:06:09.220Z,34.80
2019-04-10T22:08:46.123Z,34.70
2019-04-10T22:11:12.839Z,34.60
2019-04-10T22:13:40.037Z,34.60
2019-04-10T22:16:09.259Z,34.40
2019-04-10T22:18:36.937Z,34.30
2019-04-10T22:21:04.037Z,34.40
2019-04-10T22:23:32.923Z,34.60
2019-04-10T22:25:59.829Z,34.80
2019-04-10T22:28:26.083Z,34.50
2019-04-10T22:30:52.682Z,34.50
2019-04-10T22:33:20.161Z,35.10
2019-04-10T22:35:46.698Z,34.60
2019-04-10T22:38:13.150Z,34.60
2019-04-10T22:40:40.058Z,34.80
2019-04-10T22:43:07.405Z,34.90
2019-04-10T22:45:33.631Z,35.10
2019-04-10T22:48:04.579Z,35.20
2019-04-10T22:50:31.058Z,35.30
2019-04-10T22:53:02.215Z,35.30
2019-04-10T22:55:28.630Z,35.30
2019-04-10T22:57:58.805Z,35.20
2019-04-10T23:00:30.954Z,35.30
2019-04-10T23:02:57.324Z,35.40
2019-04-10T23:05:24.544Z,35.40
2019-04-10T23:07:51.404Z,35.30
2019-04-10T23:10:19.536Z,35.60
2019-04-10T23:12:57.538Z,35.30
2019-04-10T23:15:17.498Z,34.90
2019-04-10T23:17:43.713Z,34.80
2019-04-10T23:20:10.964Z,34.10
2019-04-10T23:22:37.642Z,34.20
2019-04-10T23:25:05.260Z,33.40
2019-04-10T23:27:31.286Z,33.10
2019-04-10T23:29:57.461Z,33.80
2019-04-10T23:32:23.593Z,33.30
2019-04-10T23:34:49.696Z,33.60
2019-04-10T23:37:15.715Z,33.50
2019-04-10T23:39:41.727Z,33.50
2019-04-10T23:42:07.752Z,33.70
2019-04-10T23:44:34.771Z,34.00
2019-04-10T23:47:02.109Z,34.10
2019-04-10T23:49:28.119Z,33.70
2019-04-10T23:51:54.250Z,34.00
2019-04-10T23:54:21.450Z,34.20
2019-04-10T23:56:49.375Z,34.30
2019-04-10T23:59:15.674Z,34.20
